Moose Lake, Minnesota
Current Conditions -  °F | °C
As of 7:33 PM on Wednesday 22 Oct 2014 (Local Time) from KMZH Reporting Station
Clear Clear  
Wind Chill: 50°   Ceiling: Unl
Heat Index: 50°   Visibility: 10mi
Dew Point: 39°   Wind: 3mph
Humidity: 66%   Direction: 160°SSE
Pressure: 30.01"   Gusts: NA
Location:  46.45°N, 92.76°W
Report Text: KMZH 230033Z AUTO 16003KT 10SM CLR 10/04 A3001 RMK AO2
Loading
Personal Weather Stations






























Interactive Weather Map
Tropical Storm Tracking
New forecast layout! Learn more

10-Day Weather Forecast

Advertisements
Track Severe Weather on mobile